Time;durP1;ratioP1;P1;durP2;ratioP2;P2;SDS_P1;SDS_P2;PMS_P1;PMS_P2;Temp;Humidity;BMP_temperature;BMP_pressure;BME280_temperature;BME280_humidity;BME280_pressure;Samples;Min_cycle;Max_cycle;Signal;HPM_P1;HPM_P2
2022/12/17 13:06:09;;;;;;;1999.90;999.90;;;7.60;1.00;;;;;;5034103;28;20457;-66
2022/12/17 13:08:34;;;;;;;1999.90;999.90;;;7.50;99.90;;;;;;5033418;28;20787;-67
2022/12/17 13:11:29;;;;;;;1999.90;999.90;;;7.80;99.90;;;;;;5033576;28;20448;-67
2022/12/17 13:14:03;;;;;;;1999.90;999.90;;;8.20;1.00;;;;;;5032761;28;20825;-69
2022/12/17 13:16:38;;;;;;;1999.90;999.90;;;8.80;49.20;;;;;;5032507;28;20419;-69
2022/12/17 13:19:37;;;;;;;1999.90;999.90;;;9.50;99.90;;;;;;5032215;28;20405;-69
2022/12/17 13:22:30;;;;;;;1999.90;999.90;;;9.70;4.30;;;;;;5017300;28;20465;-69
2022/12/17 13:25:16;;;;;;;1999.90;999.90;;;9.70;1.00;;;;;;5029524;28;20526;-69
2022/12/17 13:27:42;;;;;;;1999.90;999.90;;;9.70;1.00;;;;;;5031747;28;20397;-69
2022/12/17 13:30:17;;;;;;;1999.90;999.90;;;10.00;39.00;;;;;;5031857;28;20452;-69
2022/12/17 13:32:43;;;;;;;1999.90;999.90;;;;;;;;;;5032138;28;20441;-69
2022/12/17 13:35:46;;;;;;;1999.90;999.90;;;9.50;99.90;;;;;;5032464;28;20551;-69
2022/12/17 13:38:32;;;;;;;1999.90;999.90;;;9.00;51.50;;;;;;5030807;28;20497;-70
2022/12/17 13:41:13;;;;;;;1999.90;999.90;;;9.00;4.00;;;;;;5020438;28;20926;-68
2022/12/17 13:43:48;;;;;;;1999.90;999.90;;;9.40;25.20;;;;;;5032032;28;20475;-69
2022/12/17 13:46:18;;;;;;;1999.90;999.90;;;9.10;93.40;;;;;;5031965;28;20413;-69
2022/12/17 13:49:01;;;;;;;1999.90;999.90;;;8.80;97.00;;;;;;5031765;28;20434;-68
2022/12/17 13:51:29;;;;;;;1999.90;999.90;;;8.40;1.00;;;;;;5035289;28;20483;-66
2022/12/17 13:53:57;;;;;;;1999.90;999.90;;;8.40;99.90;;;;;;5036784;28;20404;-67
2022/12/17 13:56:48;;;;;;;1999.90;999.90;;;8.40;92.80;;;;;;5038726;28;20472;-67
2022/12/17 13:59:20;;;;;;;1999.90;999.90;;;8.70;81.90;;;;;;5031365;28;20419;-67
2022/12/17 14:01:49;;;;;;;1999.90;999.90;;;8.40;99.90;;;;;;5038883;28;20486;-67
2022/12/17 14:04:24;;;;;;;1999.90;999.90;;;7.90;99.90;;;;;;5038602;28;20425;-67
2022/12/17 14:06:51;;;;;;;1999.90;999.90;;;8.20;99.90;;;;;;5029550;28;20419;-69
2022/12/17 14:09:19;;;;;;;1999.90;999.90;;;7.80;99.90;;;;;;5029504;28;20416;-69
2022/12/17 14:14:41;;;;;;;1999.90;999.90;;;7.80;86.60;;;;;;5030663;28;20415;-69
2022/12/17 14:17:21;;;;;;;1999.90;999.90;;;7.90;99.90;;;;;;5030246;28;20461;-69
2022/12/17 14:20:07;;;;;;;1999.90;999.90;;;7.50;99.90;;;;;;5030057;28;20403;-69
2022/12/17 14:22:34;;;;;;;1999.90;999.90;;;;;;;;;;5030330;28;20430;-69
2022/12/17 14:25:00;;;;;;;1999.90;999.90;;;7.40;99.90;;;;;;5030525;28;20433;-69
2022/12/17 14:27:32;;;;;;;1999.90;999.90;;;7.80;99.90;;;;;;5030013;28;20442;-69
2022/12/17 14:29:58;;;;;;;1999.90;999.90;;;;;;;;;;5029735;28;21037;-69
2022/12/17 14:32:34;;;;;;;1999.90;999.90;;;8.00;1.00;;;;;;5030342;28;20447;-69
2022/12/17 14:35:01;;;;;;;1999.90;999.90;;;7.80;99.90;;;;;;5030467;28;20776;-69
2022/12/17 14:37:28;;;;;;;1999.90;999.90;;;7.60;99.90;;;;;;5029475;28;20416;-69
2022/12/17 14:40:05;;;;;;;1999.90;999.90;;;7.50;99.90;;;;;;5029992;28;20409;-69
2022/12/17 14:42:34;;;;;;;1999.90;999.90;;;7.30;99.90;;;;;;5030120;28;20442;-69
2022/12/17 14:45:19;;;;;;;1999.90;999.90;;;7.20;99.90;;;;;;5030371;28;20940;-69
2022/12/17 14:48:14;;;;;;;1999.90;999.90;;;7.00;99.90;;;;;;5032757;28;20805;-67
2022/12/17 14:50:39;;;;;;;1999.90;999.90;;;7.10;99.90;;;;;;5031908;28;20466;-69
2022/12/17 14:53:26;;;;;;;1999.90;999.90;;;6.50;99.90;;;;;;5035314;28;20955;-69
2022/12/17 14:55:57;;;;;;;1999.90;999.90;;;6.20;37.70;;;;;;5035353;28;20171;-68
2022/12/17 14:58:25;;;;;;;1999.90;999.90;;;6.40;99.90;;;;;;5034434;28;20414;-69
2022/12/17 15:01:12;;;;;;;1999.90;999.90;;;6.20;99.90;;;;;;5034671;28;20410;-69
2022/12/17 15:03:40;;;;;;;1999.90;999.90;;;6.10;99.90;;;;;;5034251;28;20407;-69
2022/12/17 15:06:08;;;;;;;1999.90;999.90;;;6.00;99.90;;;;;;5033115;28;20426;-69
2022/12/17 15:08:36;;;;;;;1999.90;999.90;;;5.90;1.00;;;;;;5032956;28;20419;-69
2022/12/17 15:11:02;;;;;;;1999.90;999.90;;;5.90;99.90;;;;;;5034401;28;20537;-70
2022/12/17 15:13:28;;;;;;;1999.90;999.90;;;;;;;;;;5037415;28;20418;-68
2022/12/17 15:15:53;;;;;;;1999.90;999.90;;;5.40;99.90;;;;;;5037825;28;20395;-69
2022/12/17 15:18:19;;;;;;;1999.90;999.90;;;;;;;;;;5036488;28;20415;-69
2022/12/17 15:20:45;;;;;;;1999.90;999.90;;;4.70;99.90;;;;;;5035970;28;20646;-69
2022/12/17 15:23:15;;;;;;;1999.90;999.90;;;3.90;99.90;;;;;;5036061;28;20433;-69
2022/12/17 15:25:42;;;;;;;1999.90;999.90;;;;;;;;;;5036061;28;20259;-69
2022/12/17 15:28:09;;;;;;;1999.90;999.90;;;3.10;99.90;;;;;;5034513;28;20191;-68
2022/12/17 15:30:35;;;;;;;1999.90;999.90;;;;;;;;;;5035167;28;20200;-68
2022/12/17 15:33:01;;;;;;;1999.90;999.90;;;2.20;1.00;;;;;;5035671;28;20199;-69
2022/12/17 15:35:27;;;;;;;1999.90;999.90;;;;;;;;;;5035150;28;20426;-68
2022/12/17 15:37:52;;;;;;;1999.90;999.90;;;1.80;1.00;;;;;;5034691;28;20172;-68
2022/12/17 15:40:18;;;;;;;1999.90;999.90;;;;;;;;;;5034826;28;20450;-68
2022/12/17 15:45:28;;;;;;;1999.90;999.90;;;;;;;;;;5035525;28;20406;-68
2022/12/17 15:47:54;;;;;;;1999.90;999.90;;;;;;;;;;5034914;28;20181;-68
2022/12/17 15:50:20;;;;;;;1999.90;999.90;;;;;;;;;;5034963;28;20569;-68
2022/12/17 15:52:46;;;;;;;1999.90;999.90;;;;;;;;;;5048550;28;20836;-68
2022/12/17 15:55:12;;;;;;;1999.90;999.90;;;;;;;;;;5053201;28;20394;-68
2022/12/17 15:57:38;;;;;;;1999.90;999.90;;;0.30;1.00;;;;;;5051929;28;20167;-68
2022/12/17 16:00:04;;;;;;;1999.90;999.90;;;0.20;99.90;;;;;;5053040;28;20500;-68
2022/12/17 16:02:30;;;;;;;1999.90;999.90;;;;;;;;;;5052671;28;20210;-68
2022/12/17 16:04:55;;;;;;;1999.90;999.90;;;-0.10;99.90;;;;;;5052428;28;20177;-68
2022/12/17 16:07:21;;;;;;;1999.90;999.90;;;;;;;;;;5051757;28;20778;-68
2022/12/17 16:09:47;;;;;;;1999.90;999.90;;;;;;;;;;5052721;28;20198;-68
2022/12/17 16:12:13;;;;;;;1999.90;999.90;;;-0.20;58.50;;;;;;5052134;28;20194;-68
2022/12/17 16:14:39;;;;;;;1999.90;999.90;;;;;;;;;;5053251;28;20406;-68
2022/12/17 16:17:05;;;;;;;1999.90;999.90;;;;;;;;;;5052671;28;20172;-68
2022/12/17 16:19:31;;;;;;;1999.90;999.90;;;;;;;;;;5052314;28;20192;-68
2022/12/17 16:21:56;;;;;;;1999.90;999.90;;;-0.60;99.90;;;;;;5052430;28;20422;-68
2022/12/17 16:24:22;;;;;;;1999.90;999.90;;;-0.70;99.90;;;;;;5052544;28;20172;-68
2022/12/17 16:26:48;;;;;;;1999.90;999.90;;;;;;;;;;5051796;28;20255;-68
2022/12/17 16:29:13;;;;;;;1999.90;999.90;;;-1.00;1.00;;;;;;5051551;28;20566;-68
2022/12/17 16:31:40;;;;;;;1999.90;999.90;;;;;;;;;;5051957;28;20545;-68
2022/12/17 16:34:10;;;;;;;1999.90;999.90;;;-1.00;71.60;;;;;;5051380;28;20841;-67
2022/12/17 16:36:35;;;;;;;1999.90;999.90;;;-1.00;99.90;;;;;;5053621;28;20629;-67
2022/12/17 16:39:02;;;;;;;1999.90;999.90;;;;;;;;;;5052913;28;20178;-67
2022/12/17 16:41:28;;;;;;;1999.90;999.90;;;-1.20;1.00;;;;;;5053756;28;20576;-67
2022/12/17 16:43:54;;;;;;;1999.90;999.90;;;-1.10;99.90;;;;;;5053855;28;20182;-67
2022/12/17 16:46:32;;;;;;;1999.90;999.90;;;-1.20;1.00;;;;;;5054143;28;20167;-67
2022/12/17 16:49:18;;;;;;;1999.90;999.90;;;-1.30;1.00;;;;;;5052738;28;20171;-67
2022/12/17 16:51:45;;;;;;;1999.90;999.90;;;-1.30;99.90;;;;;;5053665;28;20260;-67
2022/12/17 16:54:17;;;;;;;1999.90;999.90;;;-1.60;99.90;;;;;;5052452;28;20172;-66
2022/12/17 16:56:44;;;;;;;1999.90;999.90;;;-1.20;99.90;;;;;;5053965;28;20194;-67
2022/12/17 16:59:11;;;;;;;1999.90;999.90;;;-1.30;93.10;;;;;;5052757;28;20267;-69
2022/12/17 17:01:38;;;;;;;1999.90;999.90;;;-1.60;99.90;;;;;;5052636;28;20207;-69
2022/12/17 17:04:05;;;;;;;1999.90;999.90;;;-1.40;99.90;;;;;;5051739;28;20167;-69
2022/12/17 17:06:31;;;;;;;1999.90;999.90;;;-1.50;1.00;;;;;;5052065;28;20645;-69
2022/12/17 17:08:57;;;;;;;1999.90;999.90;;;-1.40;99.90;;;;;;5051562;28;20184;-69
2022/12/17 17:11:24;;;;;;;1999.90;999.90;;;-1.50;1.00;;;;;;5051494;28;20738;-69
2022/12/17 17:13:51;;;;;;;1999.90;999.90;;;-1.50;1.00;;;;;;5052512;28;20178;-69
2022/12/17 17:16:19;;;;;;;1999.90;999.90;;;-1.60;1.00;;;;;;5052369;28;20174;-69
2022/12/17 17:18:45;;;;;;;1999.90;999.90;;;-1.60;30.50;;;;;;5051862;28;20194;-69
2022/12/17 17:21:26;;;;;;;1999.90;999.90;;;-2.00;99.90;;;;;;5052767;28;20187;-69
2022/12/17 17:24:01;;;;;;;1999.90;999.90;;;-1.70;1.00;;;;;;5052234;28;20194;-69
2022/12/17 17:26:28;;;;;;;1999.90;999.90;;;-1.70;99.90;;;;;;5051745;28;20229;-69
2022/12/17 17:28:54;;;;;;;1999.90;999.90;;;;;;;;;;5051826;28;20202;-69
2022/12/17 17:31:21;;;;;;;1999.90;999.90;;;-1.70;99.90;;;;;;5051969;28;20207;-69
2022/12/17 17:33:48;;;;;;;1999.90;999.90;;;-1.70;99.90;;;;;;5050265;28;20167;-69
2022/12/17 17:36:21;;;;;;;1999.90;999.90;;;-2.10;99.90;;;;;;5051072;28;20203;-69
2022/12/17 17:38:48;;;;;;;1999.90;999.90;;;-1.70;1.00;;;;;;5051136;28;20167;-69
2022/12/17 17:41:20;;;;;;;1999.90;999.90;;;-1.90;69.00;;;;;;5051112;28;20168;-69
2022/12/17 17:43:46;;;;;;;1999.90;999.90;;;-2.00;99.90;;;;;;5051738;28;20187;-69
2022/12/17 17:46:16;;;;;;;1999.90;999.90;;;-2.10;59.30;;;;;;5051717;28;20195;-69
2022/12/17 17:48:43;;;;;;;1999.90;999.90;;;-2.20;99.90;;;;;;5050454;28;20179;-67
2022/12/17 17:51:20;;;;;;;1999.90;999.90;;;-2.90;99.90;;;;;;5053042;28;20191;-67
2022/12/17 17:53:50;;;;;;;1999.90;999.90;;;-2.20;29.50;;;;;;5052494;28;20167;-69
2022/12/17 17:56:22;;;;;;;1999.90;999.90;;;-2.20;3.70;;;;;;5052772;28;20247;-67
2022/12/17 17:58:50;;;;;;;1999.90;999.90;;;-2.50;99.90;;;;;;5054407;28;20182;-67
2022/12/17 18:01:23;;;;;;;1999.90;999.90;;;-2.40;99.90;;;;;;5054658;28;20156;-67
2022/12/17 18:03:49;;;;;;;1999.90;999.90;;;-2.30;99.90;;;;;;5054302;28;20850;-67
2022/12/17 18:06:15;;;;;;;1999.90;999.90;;;-2.40;1.00;;;;;;5051553;28;20179;-68
2022/12/17 18:08:42;;;;;;;1999.90;999.90;;;-2.50;99.90;;;;;;5050613;28;20539;-68
2022/12/17 18:11:10;;;;;;;1999.90;999.90;;;-2.50;99.90;;;;;;5049325;28;20207;-68
2022/12/17 18:16:42;;;;;;;1999.90;999.90;;;-2.60;1.00;;;;;;5035225;28;20175;-67
2022/12/17 18:19:08;;;;;;;1999.90;999.90;;;;;;;;;;5052448;28;20175;-66
2022/12/17 18:21:34;;;;;;;1999.90;999.90;;;;;;;;;;5051988;28;20258;-66
2022/12/17 18:24:03;;;;;;;1999.90;999.90;;;-2.60;99.90;;;;;;5050953;28;20430;-67
2022/12/17 18:26:32;;;;;;;1999.90;999.90;;;-3.00;99.90;;;;;;5051401;28;20176;-67
2022/12/17 18:29:01;;;;;;;1999.90;999.90;;;-2.70;1.00;;;;;;5052079;28;20180;-66
2022/12/17 18:31:27;;;;;;;1999.90;999.90;;;-2.80;1.00;;;;;;5059495;28;20223;-66
2022/12/17 18:33:57;;;;;;;1999.90;999.90;;;-2.70;99.90;;;;;;5060398;28;20163;-65
2022/12/17 18:36:31;;;;;;;1999.90;999.90;;;-2.80;99.90;;;;;;5057371;28;20309;-65
2022/12/17 18:39:06;;;;;;;1999.90;999.90;;;-2.70;1.00;;;;;;5060011;28;20182;-65
2022/12/17 18:44:18;;;;;;;1999.90;999.90;;;-3.70;1.00;;;;;;5057174;28;20198;-66
2022/12/17 18:46:44;;;;;;;1999.90;999.90;;;;;;;;;;5061082;28;20179;-64
2022/12/17 18:49:12;;;;;;;1999.90;999.90;;;-3.30;99.90;;;;;;5062884;28;20172;-68
2022/12/17 18:51:40;;;;;;;1999.90;999.90;;;-3.20;99.90;;;;;;5059194;28;20203;-66
2022/12/17 18:54:07;;;;;;;1999.90;999.90;;;-3.30;99.90;;;;;;5060902;28;20193;-66
2022/12/17 18:56:34;;;;;;;1999.90;999.90;;;-2.90;99.90;;;;;;5061823;28;20167;-68
2022/12/17 18:59:00;;;;;;;1999.90;999.90;;;-3.40;99.90;;;;;;5062268;28;20259;-66
2022/12/17 19:01:34;;;;;;;1999.90;999.90;;;-3.50;99.90;;;;;;5058913;28;20282;-67
2022/12/17 19:04:05;;;;;;;1999.90;999.90;;;-3.50;99.90;;;;;;5059196;28;20174;-66
2022/12/17 19:06:32;;;;;;;1999.90;999.90;;;-3.50;1.00;;;;;;5060534;28;20571;-66
2022/12/17 19:08:58;;;;;;;1999.90;999.90;;;-3.50;1.00;;;;;;5058207;28;20707;-67
2022/12/17 19:11:24;;;;;;;1999.90;999.90;;;-3.50;1.00;;;;;;5057583;28;20214;-67
2022/12/17 19:13:50;;;;;;;1999.90;999.90;;;;;;;;;;5057244;28;20164;-67
2022/12/17 19:16:19;;;;;;;1999.90;999.90;;;-3.60;1.00;;;;;;5058052;28;20199;-66
2022/12/17 19:18:54;;;;;;;1999.90;999.90;;;-3.50;1.00;;;;;;5061236;28;20179;-65
2022/12/17 19:21:20;;;;;;;1999.90;999.90;;;-3.50;1.00;;;;;;5046029;28;20179;-65
2022/12/17 19:23:47;;;;;;;1999.90;999.90;;;-3.50;1.00;;;;;;5063127;28;20263;-68
2022/12/17 19:26:16;;;;;;;1999.90;999.90;;;-3.50;1.00;;;;;;5059763;28;20255;-66
2022/12/17 19:28:47;;;;;;;1999.90;999.90;;;-3.50;1.00;;;;;;5058207;28;20190;-66
2022/12/17 19:31:14;;;;;;;1999.90;999.90;;;-3.60;1.00;;;;;;5060540;28;20207;-66
2022/12/17 19:33:40;;;;;;;1999.90;999.90;;;;;;;;;;5057972;28;20752;-66
2022/12/17 19:36:11;;;;;;;1999.90;999.90;;;-3.70;1.00;;;;;;5057196;28;20164;-65
2022/12/17 19:38:38;;;;;;;1999.90;999.90;;;;;;;;;;5056164;28;20262;-68
2022/12/17 19:41:05;;;;;;;1999.90;999.90;;;-3.80;1.00;;;;;;5056511;28;20186;-68
2022/12/17 19:43:31;;;;;;;1999.90;999.90;;;-3.80;1.00;;;;;;5058082;28;20179;-69
2022/12/17 19:46:28;;;;;;;1999.90;999.90;;;-4.20;1.00;;;;;;5056086;28;20168;-65
2022/12/17 19:48:54;;;;;;;1999.90;999.90;;;-3.80;1.00;;;;;;5039546;28;20172;-66
2022/12/17 19:51:22;;;;;;;1999.90;999.90;;;-3.70;1.00;;;;;;5057124;28;20673;-69
2022/12/17 19:53:49;;;;;;;1999.90;999.90;;;-3.60;1.00;;;;;;5056431;28;20166;-69
2022/12/17 19:56:15;;;;;;;1999.90;999.90;;;;;;;;;;5055985;28;20168;-68
2022/12/17 19:58:41;;;;;;;1999.90;999.90;;;;;;;;;;5055929;28;20203;-68
2022/12/17 20:01:09;;;;;;;1999.90;999.90;;;-4.10;1.00;;;;;;5057148;28;20402;-69
2022/12/17 20:03:36;;;;;;;1999.90;999.90;;;-4.00;1.00;;;;;;5057375;28;20178;-68
2022/12/17 20:06:02;;;;;;;1999.90;999.90;;;-4.00;1.00;;;;;;5057854;28;20182;-67
2022/12/17 20:08:28;;;;;;;1999.90;999.90;;;;;;;;;;5056756;28;20192;-68
2022/12/17 20:10:54;;;;;;;1999.90;999.90;;;;;;;;;;5057875;28;20454;-67
2022/12/17 20:13:20;;;;;;;1999.90;999.90;;;;;;;;;;5061322;28;20644;-68
2022/12/17 20:15:46;;;;;;;1999.90;999.90;;;;;;;;;;5064494;28;20406;-67
2022/12/17 20:18:12;;;;;;;1999.90;999.90;;;;;;;;;;5065436;28;20402;-67
2022/12/17 20:20:38;;;;;;;1999.90;999.90;;;;;;;;;;5061401;28;20493;-69
2022/12/17 20:23:04;;;;;;;1999.90;999.90;;;;;;;;;;5059776;28;20433;-69
2022/12/17 20:25:29;;;;;;;1999.90;999.90;;;;;;;;;;5059541;28;20406;-67
2022/12/17 20:27:55;;;;;;;1999.90;999.90;;;;;;;;;;5057316;28;20472;-67
2022/12/17 20:30:24;;;;;;;1999.90;999.90;;;-3.70;1.00;;;;;;5056786;28;20475;-67
2022/12/17 20:32:52;;;;;;;1999.90;999.90;;;-3.80;1.00;;;;;;5059035;28;20446;-67
2022/12/17 20:35:18;;;;;;;1999.90;999.90;;;-3.90;1.00;;;;;;5057055;28;20179;-68
2022/12/17 20:37:44;;;;;;;1999.90;999.90;;;-3.70;1.00;;;;;;5056185;28;20163;-68
2022/12/17 20:40:10;;;;;;;1999.90;999.90;;;;;;;;;;5056289;28;20182;-68
2022/12/17 20:42:36;;;;;;;1999.90;999.90;;;;;;;;;;5055046;28;20688;-68
2022/12/17 20:45:02;;;;;;;1999.90;999.90;;;;;;;;;;5055348;28;20172;-67
2022/12/17 20:47:28;;;;;;;1999.90;999.90;;;;;;;;;;5055308;28;20168;-67
2022/12/17 20:49:54;;;;;;;1999.90;999.90;;;;;;;;;;5055479;28;20204;-67
2022/12/17 20:52:20;;;;;;;1999.90;999.90;;;;;;;;;;5056460;28;20198;-67
2022/12/17 20:54:48;;;;;;;1999.90;999.90;;;;;;;;;;5056147;28;20407;-67
2022/12/17 20:57:14;;;;;;;1999.90;999.90;;;;;;;;;;5056151;28;20530;-67
2022/12/17 20:59:39;;;;;;;1999.90;999.90;;;-4.00;1.00;;;;;;5054924;28;20646;-67
2022/12/17 21:02:05;;;;;;;1999.90;999.90;;;;;;;;;;5055376;28;20234;-67
2022/12/17 21:04:32;;;;;;;1999.90;999.90;;;;;;;;;;5054867;28;20255;-68
2022/12/17 21:06:58;;;;;;;1999.90;999.90;;;;;;;;;;5053324;28;20409;-67
2022/12/17 21:09:24;;;;;;;1999.90;999.90;;;;;;;;;;5051946;28;20163;-68
2022/12/17 21:11:50;;;;;;;1999.90;999.90;;;;;;;;;;5053295;28;20486;-66
2022/12/17 21:14:17;;;;;;;1999.90;999.90;;;-4.40;1.00;;;;;;5055040;28;20187;-68
2022/12/17 21:16:43;;;;;;;1999.90;999.90;;;;;;;;;;5051791;28;20199;-68
2022/12/17 21:19:12;;;;;;;1999.90;999.90;;;-4.40;1.00;;;;;;5051487;28;20179;-68
2022/12/17 21:21:38;;;;;;;1999.90;999.90;;;-3.30;1.00;;;;;;5052139;28;20188;-68
2022/12/17 21:24:05;;;;;;;1999.90;999.90;;;-4.60;1.00;;;;;;5051753;28;20722;-68
2022/12/17 21:26:34;;;;;;;1999.90;999.90;;;-4.40;1.00;;;;;;5052297;28;20790;-68
2022/12/17 21:29:01;;;;;;;1999.90;999.90;;;-2.80;1.00;;;;;;5051516;28;20179;-67
2022/12/17 21:31:33;;;;;;;1999.90;999.90;;;-4.40;1.00;;;;;;5051733;28;20207;-67
2022/12/17 21:34:02;;;;;;;1999.90;999.90;;;-4.50;1.00;;;;;;5053780;28;20179;-67
2022/12/17 21:36:28;;;;;;;1999.90;999.90;;;-4.50;1.00;;;;;;5053068;28;20163;-68
2022/12/17 21:38:54;;;;;;;1999.90;999.90;;;;;;;;;;5051721;28;20172;-68
2022/12/17 21:41:22;;;;;;;1999.90;999.90;;;-4.50;1.00;;;;;;5051698;28;20196;-68
2022/12/17 21:43:56;;;;;;;1999.90;999.90;;;-4.50;1.00;;;;;;5052199;28;20897;-69
2022/12/17 21:46:24;;;;;;;1999.90;999.90;;;-4.50;1.00;;;;;;5051204;28;20210;-69
2022/12/17 21:48:51;;;;;;;1999.90;999.90;;;-4.50;1.00;;;;;;5050126;28;20172;-68
2022/12/17 21:51:17;;;;;;;1999.90;999.90;;;;;;;;;;5052605;28;20231;-68
2022/12/17 21:53:43;;;;;;;1999.90;999.90;;;;;;;;;;5052123;28;20206;-68
2022/12/17 21:56:14;;;;;;;1999.90;999.90;;;-4.70;1.00;;;;;;5052272;28;20463;-68
2022/12/17 21:58:41;;;;;;;1999.90;999.90;;;;;;;;;;5053754;28;20168;-67
2022/12/17 22:01:15;;;;;;;1999.90;999.90;;;-4.70;1.00;;;;;;5052060;28;20186;-68
2022/12/17 22:03:41;;;;;;;1999.90;999.90;;;;;;;;;;5051881;28;20175;-68
2022/12/17 22:06:09;;;;;;;1999.90;999.90;;;-4.70;1.00;;;;;;5050618;28;20174;-67
2022/12/17 22:08:35;;;;;;;1999.90;999.90;;;;;;;;;;5050048;28;20191;-68
2022/12/17 22:11:01;;;;;;;1999.90;999.90;;;;;;;;;;5052130;28;20287;-69
2022/12/17 22:16:12;;;;;;;1999.90;999.90;;;-4.70;1.00;;;;;;5050889;28;20498;-68
2022/12/17 22:18:38;;;;;;;1999.90;999.90;;;;;;;;;;5050683;28;20195;-68
2022/12/17 22:21:04;;;;;;;1999.90;999.90;;;;;;;;;;5051341;28;20210;-68
2022/12/17 22:23:30;;;;;;;1999.90;999.90;;;-4.30;1.00;;;;;;5052138;28;20779;-68
2022/12/17 22:25:56;;;;;;;1999.90;999.90;;;;;;;;;;5051906;28;20413;-68
2022/12/17 22:28:21;;;;;;;1999.90;999.90;;;-4.60;1.00;;;;;;5051966;28;20172;-68
2022/12/17 22:33:32;;;;;;;1999.90;999.90;;;-4.50;1.00;;;;;;5051911;28;20210;-68
2022/12/17 22:36:01;;;;;;;1999.90;999.90;;;-4.70;1.00;;;;;;5051999;28;20637;-68
2022/12/17 22:38:27;;;;;;;1999.90;999.90;;;-6.70;1.00;;;;;;5051918;28;20172;-68
2022/12/17 22:40:53;;;;;;;1999.90;999.90;;;;;;;;;;5052221;28;20258;-68
2022/12/17 22:43:28;;;;;;;1999.90;999.90;;;;;;;;;;5054525;28;20226;-68
2022/12/17 22:46:01;;;;;;;1999.90;999.90;;;-4.60;1.00;;;;;;5055216;28;20447;-68
2022/12/17 22:48:28;;;;;;;1999.90;999.90;;;-4.60;1.00;;;;;;5055517;28;20164;-68
2022/12/17 22:50:54;;;;;;;1999.90;999.90;;;-4.50;1.00;;;;;;5054857;28;20211;-68
2022/12/17 22:53:21;;;;;;;1999.90;999.90;;;-4.60;1.00;;;;;;5055379;28;20650;-68
2022/12/17 22:55:47;;;;;;;1999.90;999.90;;;-4.70;1.00;;;;;;5055195;28;20230;-68
2022/12/17 22:58:13;;;;;;;1999.90;999.90;;;-4.70;1.00;;;;;;5055254;28;20171;-68
2022/12/17 23:00:39;;;;;;;1999.90;999.90;;;-4.60;1.00;;;;;;5055475;28;20828;-68
2022/12/17 23:03:05;;;;;;;1999.90;999.90;;;;;;;;;;5055249;28;20705;-68
2022/12/17 23:05:31;;;;;;;1999.90;999.90;;;-4.70;1.00;;;;;;5055420;28;20262;-68
2022/12/17 23:07:58;;;;;;;1999.90;999.90;;;-4.70;1.00;;;;;;5054729;28;20217;-68
2022/12/17 23:10:25;;;;;;;1999.90;999.90;;;-4.80;1.00;;;;;;5055425;28;20288;-68
2022/12/17 23:12:54;;;;;;;1999.90;999.90;;;-4.80;1.00;;;;;;5055277;28;20274;-68
2022/12/17 23:15:35;;;;;;;1999.90;999.90;;;-4.90;1.00;;;;;;5056186;28;20539;-68
2022/12/17 23:18:02;;;;;;;1999.90;999.90;;;-4.90;1.00;;;;;;5055995;28;20179;-68
2022/12/17 23:20:30;;;;;;;1999.90;999.90;;;-5.00;1.00;;;;;;5056239;28;20203;-68
2022/12/17 23:22:55;;;;;;;1999.90;999.90;;;-4.70;1.00;;;;;;5056516;28;20203;-68
2022/12/17 23:25:22;;;;;;;1999.90;999.90;;;-4.80;1.00;;;;;;5057219;28;20596;-68
2022/12/17 23:27:48;;;;;;;1999.90;999.90;;;;;;;;;;5057644;28;20172;-68
2022/12/17 23:30:16;;;;;;;1999.90;999.90;;;-4.80;1.00;;;;;;5057049;28;20179;-68
2022/12/17 23:32:42;;;;;;;1999.90;999.90;;;-4.80;1.00;;;;;;5059014;28;20208;-68
2022/12/17 23:35:09;;;;;;;1999.90;999.90;;;-5.00;1.00;;;;;;5061450;28;20270;-68
2022/12/17 23:37:35;;;;;;;1999.90;999.90;;;;;;;;;;5057037;28;20180;-68
2022/12/17 23:40:01;;;;;;;1999.90;999.90;;;;;;;;;;5055863;28;20176;-68
2022/12/17 23:42:27;;;;;;;1999.90;999.90;;;;;;;;;;5055660;28;20215;-68
2022/12/17 23:44:53;;;;;;;1999.90;999.90;;;;;;;;;;5055807;28;20171;-68
2022/12/17 23:47:19;;;;;;;1999.90;999.90;;;;;;;;;;5055183;28;20486;-68
2022/12/17 23:49:44;;;;;;;1999.90;999.90;;;;;;;;;;5055620;28;20774;-68
2022/12/17 23:52:10;;;;;;;1999.90;999.90;;;-5.00;1.00;;;;;;5055373;28;20453;-68
2022/12/17 23:54:36;;;;;;;1999.90;999.90;;;-5.00;1.00;;;;;;5055822;28;20406;-68
2022/12/17 23:57:02;;;;;;;1999.90;999.90;;;;;;;;;;5055559;28;20539;-68
2022/12/17 23:59:27;;;;;;;1999.90;999.90;;;-5.10;1.00;;;;;;5055771;28;20164;-68
